Terminal Aerodrome Forecast
Issued by NWS

Home | Current Version | Previous Version | Text Only | Print | Product List | Glossary On
Versions: 1 2 3 4 5 6 7 8 9 10 11 12 13 14 15 16 17 18 19 20 21 22
000
FTUS46 KOTX 241738
TAFCOE
TAF
KCOE 241738Z 2418/2518 20004KT P6SM BKN026
     FM242100 21008G17KT P6SM BKN040
     FM250500 15005KT P6SM BKN030
     FM251200 08005KT P6SM BKN040=

USA.gov is the U.S. government's official web portal to all federal, state and local government web resources and services.